Time;durP1;ratioP1;P1;durP2;ratioP2;P2;SDS_P1;SDS_P2;PMS_P1;PMS_P2;Temp;Humidity;BMP_temperature;BMP_pressure;BME280_temperature;BME280_humidity;BME280_pressure;Samples;Min_cycle;Max_cycle;Signal;HPM_P1;HPM_P2
2023/06/12 00:01:37;;;;;;;7.88;4.43;;;;;;;21.83;100.00;101518.22;5034609;28;20405;-50
2023/06/12 00:04:02;;;;;;;5.55;4.70;;;;;;;21.39;100.00;101448.91;5034489;28;20394;-50
2023/06/12 00:06:28;;;;;;;6.03;4.35;;;;;;;21.68;100.00;101493.34;5028502;28;20060;-53
2023/06/12 00:08:54;;;;;;;5.95;4.75;;;;;;;21.37;100.00;101447.28;5034286;28;20051;-54
2023/06/12 00:11:20;;;;;;;7.50;3.95;;;;;;;21.25;100.00;101436.44;5034354;28;20068;-51
2023/06/12 00:13:47;;;;;;;6.18;4.57;;;;;;;21.63;100.00;101507.97;5034179;28;20068;-51
2023/06/12 00:16:12;;;;;;;10.95;4.80;;;;;;;21.32;100.00;101466.34;5015655;28;20037;-54
2023/06/12 00:18:38;;;;;;;4.90;4.38;;;;;;;21.34;100.00;101480.47;5034311;28;20040;-51
2023/06/12 00:21:05;;;;;;;5.07;4.25;;;;;;;21.39;100.00;101494.44;5033149;28;20037;-54
2023/06/12 00:23:30;;;;;;;6.55;4.60;;;;;;;21.45;100.00;101507.44;5033972;28;20041;-50
2023/06/12 00:25:56;;;;;;;5.65;4.45;;;;;;;21.02;100.00;101442.44;5033761;28;20397;-53
2023/06/12 00:28:21;;;;;;;7.25;4.60;;;;;;;21.42;100.00;101517.47;5034255;28;20037;-53
2023/06/12 00:30:47;;;;;;;4.93;4.40;;;;;;;21.32;100.00;101511.88;5033926;28;20025;-52
2023/06/12 00:33:12;;;;;;;4.95;4.40;;;;;;;21.30;100.00;101516.47;5033029;28;20165;-51
2023/06/12 00:35:37;;;;;;;5.90;4.55;;;;;;;21.25;100.00;101511.41;5016557;28;20443;-51
2023/06/12 00:38:02;;;;;;;5.40;4.50;;;;;;;20.84;100.00;101448.16;5032698;28;20556;-53
2023/06/12 00:40:28;;;;;;;4.65;4.20;;;;;;;20.75;100.00;101447.78;5033687;28;20033;-54
2023/06/12 00:42:53;;;;;;;6.78;4.20;;;;;;;21.14;100.00;101516.63;5033086;28;20039;-54
2023/06/12 00:45:23;;;;;;;6.10;4.35;;;;;;;21.00;100.00;101507.72;5033927;28;20030;-52
2023/06/12 00:47:55;;;;;;;6.88;4.30;;;;;;;21.02;100.00;101506.66;5032548;28;20499;-53
2023/06/12 00:50:25;;;;;;;5.63;4.47;;;;;;;20.66;100.00;101444.84;5033261;28;20059;-52
2023/06/12 00:52:51;;;;;;;;;;;;;;;21.03;100.00;101520.91;5033021;28;20527;-51
2023/06/12 00:55:16;;;;;;;4.15;3.75;;;;;;;20.99;100.00;101516.72;5033506;28;19922;-51
2023/06/12 00:57:43;;;;;;;5.53;4.18;;;;;;;20.95;100.00;101524.09;5033858;28;20044;-50
2023/06/12 01:00:11;;;;;;;4.75;4.03;;;;;;;20.73;100.00;101491.63;5016009;28;20029;-54
2023/06/12 01:02:39;;;;;;;5.20;4.10;;;;;;;20.93;100.00;101527.84;5033408;28;20037;-51
2023/06/12 01:05:10;;;;;;;6.18;4.03;;;;;;;20.50;100.00;101452.13;5015054;28;20116;-51
2023/06/12 01:07:38;;;;;;;9.98;4.80;;;;;;;20.93;100.00;101527.84;5015672;28;20041;-50
2023/06/12 01:10:07;;;;;;;4.65;4.15;;;;;;;20.93;100.00;101525.16;5033496;28;20029;-51
2023/06/12 01:12:34;;;;;;;6.10;4.55;;;;;;;20.49;100.00;101451.25;5033263;28;20072;-51
2023/06/12 01:15:00;;;;;;;4.85;4.15;;;;;;;20.92;100.00;101524.31;5031637;28;20087;-52
2023/06/12 01:17:27;;;;;;;4.20;3.80;;;;;;;20.53;100.00;101450.13;5032911;28;20472;-51
2023/06/12 01:19:56;;;;;;;5.10;4.15;;;;;;;20.95;100.00;101524.09;5032997;28;20042;-51
2023/06/12 01:22:22;;;;;;;5.97;3.95;;;;;;;20.65;100.00;101464.53;5031473;28;20092;-51
2023/06/12 01:24:58;;;;;;;4.45;3.90;;;;;;;20.61;100.00;101445.13;5031915;28;20030;-53
2023/06/12 01:27:59;;;;;;;4.68;4.13;;;;;;;21.05;100.00;101519.00;5033014;28;20037;-53
2023/06/12 01:30:54;;;;;;;5.43;4.23;;;;;;;21.03;100.00;101513.75;5010951;28;20033;-53
2023/06/12 01:33:21;;;;;;;5.28;4.05;;;;;;;20.67;100.00;101460.78;5033124;28;20396;-55
2023/06/12 01:35:47;;;;;;;4.38;3.97;;;;;;;20.97;100.00;101511.47;5031426;28;20048;-53
2023/06/12 01:38:17;;;;;;;5.03;4.53;;;;;;;20.67;100.00;101454.56;5031179;28;20041;-54
2023/06/12 01:40:45;;;;;;;7.45;4.25;;;;;;;21.00;100.00;101515.75;5032605;28;20516;-53
2023/06/12 01:43:10;;;;;;;5.40;4.22;;;;;;;20.59;100.00;101455.09;5014910;28;20033;-53
2023/06/12 01:45:37;;;;;;;4.68;4.10;;;;;;;20.56;100.00;101454.41;5032703;28;20037;-51
2023/06/12 01:48:04;;;;;;;4.38;3.97;;;;;;;20.98;100.00;101542.66;5032575;28;20046;-53
2023/06/12 01:50:29;;;;;;;4.78;4.32;;;;;;;20.80;100.00;101511.72;5032502;28;20033;-52
2023/06/12 01:52:54;;;;;;;5.18;4.00;;;;;;;20.10;100.00;101395.81;5013825;28;20052;-53
2023/06/12 01:55:21;;;;;;;7.35;4.50;;;;;;;20.67;100.00;101506.28;5031067;28;20037;-49
2023/06/12 01:57:48;;;;;;;5.68;4.32;;;;;;;20.68;100.00;101525.84;5014937;28;20080;-52
2023/06/12 02:00:14;;;;;;;4.78;3.95;;;;;;;20.72;100.00;101543.44;5032524;28;20133;-50
2023/06/12 02:02:40;;;;;;;5.53;4.03;;;;;;;20.34;100.00;101492.38;5031926;28;20041;-52
2023/06/12 02:05:06;;;;;;;4.78;4.38;;;;;;;20.52;100.00;101527.81;5014444;28;20036;-51
2023/06/12 02:07:32;;;;;;;6.65;4.03;;;;;;;20.14;100.00;101477.53;5032270;28;20111;-54
2023/06/12 02:09:57;;;;;;;4.55;4.15;;;;;;;20.45;100.00;101538.00;5031145;28;20465;-52
2023/06/12 02:12:23;;;;;;;5.18;4.32;;;;;;;20.28;100.00;101523.97;5014625;28;20029;-54
2023/06/12 02:14:50;;;;;;;4.05;3.65;;;;;;;20.33;100.00;101553.94;5032225;28;20056;-52
2023/06/12 02:17:17;;;;;;;5.90;4.47;;;;;;;20.20;100.00;101522.59;5032406;28;20030;-53
2023/06/12 02:19:43;;;;;;;4.82;4.32;;;;;;;20.18;100.00;101529.84;5014794;28;20044;-55
2023/06/12 02:22:08;;;;;;;5.90;4.25;;;;;;;19.67;100.00;101463.56;5032104;28;20037;-53
2023/06/12 02:24:35;;;;;;;4.60;4.20;;;;;;;19.74;100.00;101490.72;5032118;28;20117;-50
2023/06/12 02:27:01;;;;;;;5.45;4.25;;;;;;;19.70;100.00;101492.75;5031243;28;20048;-53
2023/06/12 02:29:26;;;;;;;4.60;4.20;;;;;;;19.57;100.00;101473.91;5014449;28;20033;-54
2023/06/12 02:31:52;;;;;;;4.75;4.35;;;;;;;19.80;100.00;101523.28;5031887;28;20067;-52
2023/06/12 02:34:18;;;;;;;7.10;4.45;;;;;;;19.89;100.00;101535.22;5031597;28;20370;-53
2023/06/12 02:36:46;;;;;;;8.70;4.60;;;;;;;19.71;100.00;101521.16;5014243;28;20120;-54
2023/06/12 02:39:12;;;;;;;5.72;4.30;;;;;;;19.53;100.00;101491.06;5014592;28;20029;-53
2023/06/12 02:41:39;;;;;;;4.70;4.20;;;;;;;19.73;100.00;101521.09;5030961;28;20045;-53
2023/06/12 02:44:04;;;;;;;9.73;4.22;;;;;;;19.28;100.00;101455.19;5032032;28;20041;-51
2023/06/12 02:46:29;;;;;;;6.35;4.53;;;;;;;19.64;100.00;101531.34;5031874;28;20037;-51
2023/06/12 02:48:55;;;;;;;5.47;4.43;;;;;;;19.52;100.00;101516.06;5014087;28;20037;-50
2023/06/12 02:51:20;;;;;;;6.20;4.35;;;;;;;19.18;100.00;101452.19;4997744;28;20397;-51
2023/06/12 02:53:45;;;;;;;5.18;4.63;;;;;;;19.40;100.00;101497.22;5031819;28;20047;-54
2023/06/12 02:56:11;;;;;;;5.38;4.60;;;;;;;19.54;100.00;101540.00;5030750;28;20461;-52
2023/06/12 02:58:36;;;;;;;4.65;4.25;;;;;;;19.47;100.00;101528.81;5031010;28;20044;-50
2023/06/12 03:01:04;;;;;;;5.75;4.68;;;;;;;19.40;100.00;101527.47;5014088;28;20036;-54
2023/06/12 03:03:29;;;;;;;6.10;5.40;;;;;;;18.93;100.00;101454.56;5031762;28;20049;-52
2023/06/12 03:05:55;;;;;;;5.40;4.63;;;;;;;18.97;100.00;101464.13;5016970;28;20090;-54
2023/06/12 03:08:20;;;;;;;6.63;4.65;;;;;;;19.32;100.00;101518.97;5035110;28;20034;-48
2023/06/12 03:10:45;;;;;;;6.60;4.63;;;;;;;19.25;100.00;101533.63;5036148;28;20044;-50
2023/06/12 03:13:12;;;;;;;6.00;4.68;;;;;;;19.03;100.00;101501.97;5035487;28;20076;-53
2023/06/12 03:15:37;;;;;;;6.70;4.43;;;;;;;18.81;100.00;101468.59;5034441;28;20108;-52
2023/06/12 03:18:03;;;;;;;5.35;4.63;;;;;;;19.16;100.00;101527.97;5035200;28;20120;-54
2023/06/12 03:20:28;;;;;;;6.13;4.90;;;;;;;19.07;100.00;101516.88;5035379;28;20040;-51
2023/06/12 03:22:53;;;;;;;8.85;4.53;;;;;;;19.02;100.00;101518.09;5009791;28;20050;-51
2023/06/12 03:25:19;;;;;;;5.38;4.70;;;;;;;19.02;100.00;101529.63;5015322;28;20045;-52
2023/06/12 03:27:47;;;;;;;5.00;4.50;;;;;;;19.00;100.00;101536.00;5015584;28;20370;-53
2023/06/12 03:30:13;;;;;;;6.25;5.03;;;;;;;18.93;100.00;101529.25;5015523;28;20049;-52
2023/06/12 03:32:38;;;;;;;5.40;4.47;;;;;;;18.86;100.00;101538.53;5015216;28;20041;-52
2023/06/12 03:35:04;;;;;;;7.30;4.53;;;;;;;18.32;100.00;101449.13;5013896;28;20037;-53
2023/06/12 03:37:29;;;;;;;7.55;5.05;;;;;;;18.69;100.00;101519.94;5015117;28;20072;-50
2023/06/12 03:39:55;;;;;;;5.70;4.68;;;;;;;18.67;100.00;101512.06;5015361;28;20038;-53
2023/06/12 03:42:21;;;;;;;5.32;4.82;;;;;;;18.62;100.00;101523.91;5015131;28;20667;-54
2023/06/12 03:44:46;;;;;;;8.27;5.22;;;;;;;18.67;100.00;101541.38;5009593;28;20041;-55
2023/06/12 03:47:11;;;;;;;7.28;4.70;;;;;;;18.22;100.00;101455.88;5014582;28;20051;-52
2023/06/12 03:49:38;;;;;;;5.15;4.65;;;;;;;18.59;100.00;101529.41;4997528;28;20496;-53
2023/06/12 03:52:04;;;;;;;7.97;5.28;;;;;;;18.66;100.00;101541.44;4997285;28;20469;-52
2023/06/12 03:54:29;;;;;;;5.22;4.70;;;;;;;18.65;100.00;101537.91;5015080;28;20056;-53
2023/06/12 03:56:55;;;;;;;9.40;5.10;;;;;;;18.51;100.00;101519.16;5015102;28;20036;-53
2023/06/12 03:59:20;;;;;;;5.15;4.50;;;;;;;18.54;100.00;101530.53;4997351;28;20074;-54
2023/06/12 04:01:48;;;;;;;7.00;4.90;;;;;;;18.51;100.00;101533.34;4995798;28;20053;-51
2023/06/12 04:04:14;;;;;;;8.50;4.85;;;;;;;18.65;100.00;101553.91;5014760;28;20466;-53
2023/06/12 04:06:40;;;;;;;6.10;4.90;;;;;;;18.38;100.00;101505.63;5014820;28;20069;-54
2023/06/12 04:09:07;;;;;;;5.15;4.30;;;;;;;18.56;100.00;101533.13;4997074;28;20049;-53
2023/06/12 04:11:34;;;;;;;5.45;4.90;;;;;;;18.31;100.00;101487.34;4997009;28;20137;-51
2023/06/12 04:14:00;;;;;;;7.38;4.93;;;;;;;18.47;100.00;101521.13;5014612;28;20049;-54
2023/06/12 04:16:27;;;;;;;5.15;4.68;;;;;;;18.27;100.00;101478.66;5013309;28;20048;-52
2023/06/12 04:18:52;;;;;;;5.70;4.75;;;;;;;18.74;100.00;101552.59;5013409;28;20125;-54
2023/06/12 04:21:20;;;;;;;5.38;4.88;;;;;;;18.32;100.00;101478.44;5014250;28;20133;-53
2023/06/12 04:23:47;;;;;;;5.05;4.50;;;;;;;18.38;100.00;101494.09;5029117;28;20049;-53
2023/06/12 04:26:14;;;;;;;5.28;4.78;;;;;;;18.35;100.00;101479.13;5033888;28;20034;-54
2023/06/12 04:28:41;;;;;;;5.30;4.80;;;;;;;18.30;100.00;101469.66;5016513;28;20396;-54
2023/06/12 04:31:07;;;;;;;4.90;4.50;;;;;;;18.83;100.00;101558.25;5034041;28;20421;-52
2023/06/12 04:33:35;;;;;;;6.90;5.50;;;;;;;18.90;100.00;101558.78;5032917;28;20063;-54
2023/06/12 04:36:02;;;;;;;7.50;5.47;;;;;;;18.96;100.00;101578.00;5033916;28;20183;-52
2023/06/12 04:38:30;;;;;;;5.85;4.55;;;;;;;18.51;100.00;101485.38;5016100;28;20033;-56
2023/06/12 04:40:56;;;;;;;5.20;4.30;;;;;;;19.04;100.00;101572.22;5034037;28;20049;-54
2023/06/12 04:43:23;;;;;;;7.93;4.80;;;;;;;19.00;100.00;101554.66;5033537;28;20460;-51
2023/06/12 04:45:49;;;;;;;5.50;5.00;;;;;;;18.81;100.00;101508.59;5016520;28;20044;-51
2023/06/12 04:48:15;;;;;;;5.60;4.60;;;;;;;18.75;100.00;101495.63;5033304;28;20037;-55
2023/06/12 04:50:40;;;;;;;6.70;4.80;;;;;;;18.86;100.00;101502.06;5032640;28;20052;-53
2023/06/12 04:53:06;;;;;;;5.88;4.50;;;;;;;19.34;100.00;101566.94;5033634;28;20068;-54
2023/06/12 04:55:32;;;;;;;6.22;5.55;;;;;;;18.98;100.00;101497.84;5015996;28;20392;-52
2023/06/12 04:57:58;;;;;;;7.80;4.85;;;;;;;19.08;100.00;101505.25;5033422;28;20389;-50
2023/06/12 05:00:23;;;;;;;5.60;5.00;;;;;;;19.16;100.00;101501.28;5031996;28;20076;-48
2023/06/12 05:02:49;;;;;;;5.40;4.70;;;;;;;19.61;100.00;101570.75;5028538;28;20109;-50
2023/06/12 05:05:15;;;;;;;6.78;4.25;;;;;;;19.46;100.00;101545.78;5033112;28;20037;-52
2023/06/12 05:07:45;;;;;;;7.50;4.72;;;;;;;19.72;100.00;101579.00;5033154;28;20033;-51
2023/06/12 05:10:10;;;;;;;7.25;4.90;;;;;;;19.37;100.00;101514.25;5031799;28;20061;-50
2023/06/12 05:12:36;;;;;;;4.70;4.30;;;;;;;19.67;100.00;101566.84;5033233;28;20065;-56
2023/06/12 05:15:01;;;;;;;7.10;4.78;;;;;;;19.74;100.00;101577.06;5032773;28;20048;-52
2023/06/12 05:17:27;;;;;;;5.45;4.95;;;;;;;19.33;100.00;101502.03;5031964;28;20072;-55
2023/06/12 05:19:53;;;;;;;4.90;4.20;;;;;;;19.52;100.00;101521.41;5032821;28;20099;-52
2023/06/12 05:22:19;;;;;;;9.35;4.90;;;;;;;19.81;100.00;101551.72;5030841;28;20042;-54
2023/06/12 05:24:44;;;;;;;9.88;4.50;;;;;;;20.00;100.00;101586.22;5033089;28;20144;-54
2023/06/12 05:27:10;;;;;;;7.47;4.80;;;;;;;20.11;100.00;101583.78;5032548;28;20473;-51
2023/06/12 05:29:35;;;;;;;6.32;4.40;;;;;;;19.91;100.00;101528.84;5032689;28;20030;-54
2023/06/12 05:32:01;;;;;;;5.03;4.57;;;;;;;19.93;100.00;101502.03;5015274;28;20049;-54
2023/06/12 05:34:27;;;;;;;5.75;4.50;;;;;;;20.49;100.00;101578.81;5014361;28;20025;-53
2023/06/12 05:36:54;;;;;;;6.90;4.68;;;;;;;20.23;100.00;101507.34;5032611;28;20128;-55
2023/06/12 05:39:19;;;;;;;6.10;4.43;;;;;;;20.71;100.00;101582.72;5032447;28;20060;-54
2023/06/12 05:41:45;;;;;;;5.65;4.18;;;;;;;20.45;100.00;101516.63;5032716;28;20041;-52
2023/06/12 05:44:10;;;;;;;6.25;5.20;;;;;;;20.98;100.00;101572.09;5032537;28;20059;-53
2023/06/12 05:46:35;;;;;;;4.85;4.28;;;;;;;20.70;100.00;101527.47;5032309;28;20183;-52
2023/06/12 05:49:01;;;;;;;6.43;5.82;;;;;;;21.14;100.00;101585.34;5032293;28;20408;-55
2023/06/12 05:51:27;;;;;;;7.85;4.50;;;;;;;20.72;100.00;101501.47;5031144;28;20107;-54
2023/06/12 05:53:53;;;;;;;7.07;4.63;;;;;;;21.16;100.00;101560.19;5032589;28;20038;-54
2023/06/12 05:56:18;;;;;;;7.47;4.68;;;;;;;21.44;100.00;101583.38;5014444;28;20033;-54
2023/06/12 05:58:44;;;;;;;7.57;4.90;;;;;;;21.55;100.00;101571.94;5031226;28;20040;-54
2023/06/12 06:01:11;;;;;;;5.40;4.47;;;;;;;21.59;100.00;101568.09;5032217;28;20037;-55
2023/06/12 06:03:42;;;;;;;8.40;5.40;;;;;;;21.76;100.00;101587.44;5014345;28;20039;-54
2023/06/12 06:06:07;;;;;;;;;;;;;;;21.78;100.00;101584.66;5032399;28;20121;-54
2023/06/12 06:08:33;;;;;;;6.00;4.43;;;;;;;21.42;100.00;101523.69;5030795;28;20016;-55
2023/06/12 06:10:58;;;;;;;11.93;4.95;;;;;;;21.45;100.00;101518.13;5032290;28;20033;-54
2023/06/12 06:13:23;;;;;;;13.80;4.85;;;;;;;21.93;100.00;101590.84;5014413;28;20071;-54
2023/06/12 06:15:49;;;;;;;5.78;4.40;;;;;;;22.00;100.00;101602.88;5032247;28;20034;-54
2023/06/12 06:18:14;;;;;;;7.20;4.65;;;;;;;21.75;100.00;101526.75;5032189;28;20033;-54
2023/06/12 06:20:40;;;;;;;7.05;5.18;;;;;;;21.87;100.00;101525.06;5032009;28;20099;-52
2023/06/12 06:23:05;;;;;;;5.30;4.78;;;;;;;22.04;100.00;101531.97;5030819;28;20052;-54
2023/06/12 06:25:31;;;;;;;5.72;4.60;;;;;;;22.59;100.00;101599.56;5032242;28;20041;-53
2023/06/12 06:27:57;;;;;;;11.35;4.93;;;;;;;22.75;100.00;101596.72;5031953;28;20125;-54
2023/06/12 06:30:22;;;;;;;7.60;4.60;;;;;;;22.88;100.00;101598.41;5032115;28;20649;-55
2023/06/12 06:32:49;;;;;;;7.82;4.68;;;;;;;22.93;100.00;101590.91;5032131;28;20037;-52
2023/06/12 06:35:15;;;;;;;6.85;4.65;;;;;;;22.73;100.00;101540.47;5031808;28;20033;-55
2023/06/12 06:37:40;;;;;;;6.40;4.63;;;;;;;22.88;100.00;101535.81;5032128;28;20382;-53
2023/06/12 06:40:06;;;;;;;9.13;4.95;;;;;;;23.39;100.00;101609.03;5031978;28;20037;-54
2023/06/12 06:42:31;;;;;;;10.82;5.25;;;;;;;23.36;100.00;101585.06;5036224;28;20112;-54
2023/06/12 06:44:57;;;;;;;5.72;4.95;;;;;;;23.62;100.00;101601.97;5036152;28;20099;-53
2023/06/12 06:47:22;;;;;;;9.40;4.63;;;;;;;23.69;100.00;101606.78;5035794;28;20048;-54
2023/06/12 06:49:47;;;;;;;7.10;4.82;;;;;;;23.61;100.00;101593.06;5036045;28;20037;-55
2023/06/12 06:52:13;;;;;;;9.70;4.60;;;;;;;23.38;100.00;101545.53;5035969;28;20052;-61
2023/06/12 06:54:38;;;;;;;7.22;4.80;;;;;;;23.86;100.00;101613.56;5036009;28;20041;-59
2023/06/12 06:57:03;;;;;;;8.77;5.45;;;;;;;23.94;100.00;101611.16;5033350;28;20040;-60
2023/06/12 06:59:29;;;;;;;5.25;4.70;;;;;;;24.07;100.00;101612.81;5035417;28;20045;-61
2023/06/12 07:01:54;;;;;;;8.68;4.43;;;;;;;23.80;100.00;101546.81;5035643;28;20416;-60
2023/06/12 07:04:19;;;;;;;8.57;4.65;;;;;;;23.84;100.00;101548.31;5035913;28;20443;-59
2023/06/12 07:06:45;;;;;;;9.52;4.40;;;;;;;24.08;100.00;101574.16;5035386;28;20030;-61
2023/06/12 07:09:10;;;;;;;8.98;4.30;;;;;;;24.45;100.00;101619.78;5017840;28;20042;-59
2023/06/12 07:11:36;;;;;;;6.13;4.50;;;;;;;24.56;100.00;101617.09;5035479;28;20029;-59
2023/06/12 07:14:01;;;;;;;5.90;4.43;;;;;;;24.59;100.00;101590.78;5034461;28;20045;-61
2023/06/12 07:16:27;;;;;;;8.30;4.88;;;;;;;24.63;100.00;101588.72;5035404;28;20540;-60
2023/06/12 07:18:52;;;;;;;8.32;4.85;;;;;;;24.25;100.00;101496.72;5018010;28;20068;-61
2023/06/12 07:21:18;;;;;;;11.73;5.68;;;;;;;24.78;100.00;101565.94;5035613;28;20118;-59
2023/06/12 07:23:43;;;;;;;9.75;4.70;;;;;;;24.84;100.00;101559.25;5005462;28;20057;-59
2023/06/12 07:26:09;;;;;;;11.00;4.90;;;;;;;25.01;100.00;101554.22;5015597;28;20043;-59
2023/06/12 07:28:34;;;;;;;6.95;4.57;;;;;;;25.52;100.00;101621.00;5015564;28;20044;-59
2023/06/12 07:31:00;;;;;;;6.22;4.68;;;;;;;25.53;100.00;101601.16;5013982;28;20045;-59
2023/06/12 07:33:25;;;;;;;7.75;4.65;;;;;;;25.61;100.00;101613.00;5015609;28;20034;-62
2023/06/12 07:35:51;;;;;;;7.50;5.00;;;;;;;25.42;100.00;101555.34;5015325;28;20061;-61
2023/06/12 07:38:16;;;;;;;7.85;4.60;;;;;;;25.11;100.00;101460.03;5015287;28;20038;-61
2023/06/12 07:40:41;;;;;;;5.30;4.80;;;;;;;26.38;100.00;101620.91;5015321;28;20045;-61
2023/06/12 07:43:07;;;;;;;7.90;5.15;;;;;;;26.36;100.00;101550.84;5015178;28;20099;-60
2023/06/12 07:45:32;;;;;;;5.47;4.15;;;;;;;27.10;100.00;101600.94;5012894;28;20115;-60
2023/06/12 07:47:57;;;;;;;5.93;4.82;;;;;;;27.73;100.00;101620.47;5015285;28;20503;-61
2023/06/12 07:50:24;;;;;;;4.82;4.43;;;;;;;27.91;100.00;101559.22;5009058;28;20037;-61
2023/06/12 07:52:49;;;;;;;5.68;4.70;;;;;;;28.35;100.00;101552.31;5015270;28;20038;-59
2023/06/12 07:55:16;;;;;;;5.90;5.35;;;;;;;29.02;100.00;101600.84;5015193;28;20389;-58
2023/06/12 07:57:41;;;;;;;8.85;4.80;;;;;;;29.55;100.00;101618.13;4997432;28;20500;-58
2023/06/12 08:00:07;;;;;;;6.18;4.53;;;;;;;29.77;100.00;101572.56;5014846;28;20030;-60
2023/06/12 08:02:33;;;;;;;6.78;4.57;;;;;;;30.14;100.00;101594.94;5014867;28;20467;-59
2023/06/12 08:04:59;;;;;;;5.50;4.57;;;;;;;30.18;100.00;101565.63;5012842;28;20457;-59
2023/06/12 08:07:26;;;;;;;7.18;4.55;;;;;;;30.52;100.00;101607.31;5007840;28;20116;-58
2023/06/12 08:09:52;;;;;;;8.70;4.68;;;;;;;30.34;100.00;101558.44;5013235;28;20501;-58
2023/06/12 08:12:17;;;;;;;5.95;4.93;;;;;;;30.68;100.00;101610.97;5025102;28;20034;-60
2023/06/12 08:14:42;;;;;;;5.30;4.80;;;;;;;30.54;99.91;101564.53;5013493;28;20400;-62
2023/06/12 08:17:08;;;;;;;7.07;4.97;;;;;;;30.67;98.56;101592.97;5014027;28;20064;-60
2023/06/12 08:19:34;;;;;;;6.43;4.60;;;;;;;31.10;93.41;101604.75;5012453;28;20084;-59
2023/06/12 08:22:00;;;;;;;6.25;4.93;;;;;;;30.99;97.46;101595.03;5013641;28;20397;-61
2023/06/12 08:24:29;;;;;;;7.50;5.00;;;;;;;31.28;93.84;101612.81;5006869;28;20095;-59
2023/06/12 08:26:55;;;;;;;13.63;5.40;;;;;;;31.06;96.41;101601.50;5033399;28;20057;-59
2023/06/12 08:29:21;;;;;;;6.30;5.70;;;;;;;31.14;95.39;101604.25;5023875;28;20038;-60
2023/06/12 08:31:46;;;;;;;5.80;5.20;;;;;;;31.35;91.39;101611.13;5026414;28;20397;-60
2023/06/12 08:34:11;;;;;;;6.15;4.97;;;;;;;31.23;86.13;101566.22;5016258;28;20045;-60
2023/06/12 08:36:37;;;;;;;5.15;4.60;;;;;;;31.76;86.07;101613.78;5015136;28;20041;-60
2023/06/12 08:39:03;;;;;;;6.32;4.65;;;;;;;31.84;91.94;101601.22;5031563;28;20087;-60
2023/06/12 08:41:30;;;;;;;6.90;4.43;;;;;;;31.69;89.56;101558.34;5016341;28;20087;-60
2023/06/12 08:43:59;;;;;;;5.88;5.18;;;;;;;32.27;84.00;101611.78;5015966;28;20113;-60
2023/06/12 08:46:30;;;;;;;9.40;4.80;;;;;;;32.21;86.46;101545.22;5015062;28;20485;-60
2023/06/12 08:48:59;;;;;;;5.63;4.43;;;;;;;32.59;75.99;101559.97;5029242;28;20033;-59
2023/06/12 08:51:25;;;;;;;5.60;4.90;;;;;;;33.02;73.52;101606.84;5033826;28;20048;-60
2023/06/12 08:53:50;;;;;;;4.93;4.50;;;;;;;33.01;80.16;101591.53;4999735;28;20461;-59
2023/06/12 08:56:16;;;;;;;6.85;4.53;;;;;;;32.75;71.75;101521.75;5033420;28;20116;-59
2023/06/12 08:58:41;;;;;;;4.90;4.50;;;;;;;32.97;76.46;101549.25;5033844;28;20033;-60
2023/06/12 09:01:08;;;;;;;6.90;4.45;;;;;;;33.20;78.78;101580.19;5014952;28;20435;-59
2023/06/12 09:03:35;;;;;;;5.40;4.90;;;;;;;33.42;73.68;101576.69;5015542;28;20025;-59
2023/06/12 09:06:05;;;;;;;6.00;4.68;;;;;;;33.14;71.40;101540.00;5015775;28;20044;-60
2023/06/12 09:08:30;;;;;;;5.22;4.10;;;;;;;33.24;68.01;101525.09;4999984;28;20037;-60
2023/06/12 09:10:57;;;;;;;8.05;4.72;;;;;;;33.55;77.11;101571.44;5012629;28;20053;-61
2023/06/12 09:13:22;;;;;;;5.70;4.93;;;;;;;33.77;66.60;101581.53;5033559;28;20075;-60
2023/06/12 09:15:52;;;;;;;6.88;4.22;;;;;;;33.05;71.65;101532.84;5033424;28;20067;-59
2023/06/12 09:18:19;;;;;;;6.03;4.50;;;;;;;33.30;81.31;101540.75;5033200;28;20041;-60
2023/06/12 09:20:44;;;;;;;5.97;4.70;;;;;;;33.63;73.43;101584.22;5033090;28;20366;-60
2023/06/12 09:23:11;;;;;;;5.75;4.28;;;;;;;33.91;72.89;101574.47;5014966;28;20199;-60
2023/06/12 09:25:39;;;;;;;4.82;4.43;;;;;;;33.68;66.20;101544.44;5015453;28;20115;-60
2023/06/12 09:28:05;;;;;;;5.60;4.28;;;;;;;33.81;60.59;101525.53;5033188;28;20029;-59
2023/06/12 09:30:31;;;;;;;5.97;4.03;;;;;;;33.66;66.22;101532.84;5014368;28;20059;-59
2023/06/12 09:32:59;;;;;;;4.85;4.15;;;;;;;33.42;60.82;101533.00;5014039;28;20037;-60
2023/06/12 09:35:24;;;;;;;6.85;4.65;;;;;;;33.53;60.66;101529.00;5028796;28;20040;-58
2023/06/12 09:37:50;;;;;;;7.93;4.15;;;;;;;33.94;67.04;101583.13;5030079;28;20472;-59
2023/06/12 09:40:15;;;;;;;6.25;3.80;;;;;;;33.90;59.28;101529.06;5030317;28;20036;-59
2023/06/12 09:42:42;;;;;;;8.30;4.28;;;;;;;33.86;50.29;101558.59;5032954;28;20033;-60
2023/06/12 09:45:11;;;;;;;6.25;4.15;;;;;;;34.40;50.09;101585.81;5015082;28;20129;-60
2023/06/12 09:47:48;;;;;;;6.28;4.03;;;;;;;34.36;56.03;101562.59;5015193;28;20037;-59
2023/06/12 09:50:18;;;;;;;7.10;3.78;;;;;;;34.59;54.96;101540.69;5032297;28;20030;-59
2023/06/12 09:52:45;;;;;;;6.80;3.75;;;;;;;34.86;46.91;101583.75;5032762;28;20378;-59
2023/06/12 09:55:12;;;;;;;8.65;3.80;;;;;;;34.64;48.91;101541.81;5031629;28;20459;-59
2023/06/12 09:57:40;;;;;;;7.53;4.10;;;;;;;34.59;44.46;101589.91;5032539;28;20494;-60
2023/06/12 10:00:09;;;;;;;6.68;3.95;;;;;;;35.08;41.86;101591.06;5031133;28;20033;-59
2023/06/12 10:02:35;;;;;;;5.60;3.60;;;;;;;35.23;52.65;101589.09;5031377;28;20446;-60
2023/06/12 10:05:06;;;;;;;4.85;4.05;;;;;;;35.24;53.58;101537.94;5014800;28;20039;-56
2023/06/12 10:07:38;;;;;;;6.47;4.40;;;;;;;35.79;54.28;101581.94;5031510;28;20061;-58
2023/06/12 10:10:07;;;;;;;6.35;3.95;;;;;;;35.44;49.96;101525.31;5013696;28;20040;-54
2023/06/12 10:12:33;;;;;;;4.30;3.90;;;;;;;35.26;46.72;101579.69;5032452;28;20033;-54
2023/06/12 10:14:59;;;;;;;8.35;5.15;;;;;;;34.87;56.72;101536.22;5031684;28;20116;-55
2023/06/12 10:17:25;;;;;;;7.25;4.55;;;;;;;34.67;60.19;101533.25;5014470;28;20472;-54
2023/06/12 10:19:51;;;;;;;7.28;4.75;;;;;;;34.89;46.99;101580.66;5014654;28;20415;-55
2023/06/12 10:22:16;;;;;;;6.57;4.45;;;;;;;34.26;50.23;101534.72;5014525;28;20044;-57
2023/06/12 10:24:42;;;;;;;5.75;4.22;;;;;;;34.13;55.87;101526.28;5026143;28;20049;-54
2023/06/12 10:27:08;;;;;;;8.52;5.00;;;;;;;34.51;57.32;101530.66;5014927;28;20038;-52
2023/06/12 10:29:38;;;;;;;6.53;3.92;;;;;;;34.41;53.78;101563.72;5032206;28;20091;-55
2023/06/12 10:32:08;;;;;;;6.03;4.30;;;;;;;34.65;56.36;101537.22;5032264;28;20041;-53
2023/06/12 10:34:34;;;;;;;5.33;4.13;;;;;;;34.88;54.11;101560.63;5032351;28;20042;-57
2023/06/12 10:37:23;;;;;;;4.20;3.53;;;;;;;35.10;44.02;101571.69;5014486;28;20030;-50
2023/06/12 10:40:06;;;;;;;4.72;3.80;;;;;;;34.64;46.75;101525.41;5020521;28;20038;-56
2023/06/12 10:42:49;;;;;;;4.03;3.60;;;;;;;34.25;49.00;101514.72;5011217;28;20396;-55
2023/06/12 10:45:24;;;;;;;5.40;4.15;;;;;;;34.57;54.63;101538.09;5024639;28;20119;-53
2023/06/12 10:48:02;;;;;;;6.68;4.57;;;;;;;34.81;43.00;101569.81;5032131;28;20030;-54
2023/06/12 10:50:27;;;;;;;5.03;4.38;;;;;;;35.03;47.17;101568.81;5032088;28;20026;-53
2023/06/12 10:52:54;;;;;;;5.25;4.60;;;;;;;34.57;42.24;101518.13;5031832;28;20045;-57
2023/06/12 10:55:39;;;;;;;4.63;3.85;;;;;;;34.60;43.17;101526.81;5032276;28;20091;-55
2023/06/12 10:58:06;;;;;;;7.35;4.05;;;;;;;34.66;44.01;101566.22;5014496;28;20026;-56
2023/06/12 11:00:44;;;;;;;4.78;4.38;;;;;;;34.13;47.50;101490.78;5014502;28;20375;-57
2023/06/12 11:03:14;;;;;;;4.97;4.35;;;;;;;34.48;50.99;101504.56;5030804;28;20068;-55
2023/06/12 11:05:46;;;;;;;;;;;;;;;35.32;49.76;101557.03;5014712;28;20034;-58
2023/06/12 11:08:12;;;;;;;4.80;4.40;;;;;;;35.32;49.05;101519.53;5032093;28;19913;-57
2023/06/12 11:10:37;;;;;;;8.00;4.22;;;;;;;35.44;53.40;101553.56;5031916;28;20146;-57
2023/06/12 11:13:03;;;;;;;4.97;4.47;;;;;;;35.69;45.30;101570.50;5032036;28;20065;-52
2023/06/12 11:15:33;;;;;;;4.40;4.00;;;;;;;34.81;49.40;101498.69;5031774;28;20033;-52
2023/06/12 11:17:58;;;;;;;4.43;4.07;;;;;;;35.46;49.03;101485.78;5031650;28;20087;-56